Time;durP1;ratioP1;P1;durP2;ratioP2;P2;SDS_P1;SDS_P2;PMS_P1;PMS_P2;Temp;Humidity;BMP_temperature;BMP_pressure;BME280_temperature;BME280_humidity;BME280_pressure;Samples;Min_cycle;Max_cycle;Signal;HPM_P1;HPM_P2
2023/04/17 00:00:36;;;;;;;65.90;42.40;;;8.20;99.90;;;;;;6097875;23;20017;-82
2023/04/17 00:03:02;;;;;;;64.78;43.13;;;8.20;99.90;;;;;;6097479;23;20057;-82
2023/04/17 00:05:27;;;;;;;69.30;44.33;;;8.20;99.90;;;;;;6097786;23;20342;-82
2023/04/17 00:07:53;;;;;;;61.28;42.67;;;8.20;99.90;;;;;;6121786;23;20009;-82
2023/04/17 00:10:19;;;;;;;63.50;43.17;;;8.30;99.90;;;;;;6122043;23;20093;-82
2023/04/17 00:12:45;;;;;;;66.90;43.75;;;8.20;99.90;;;;;;6123662;23;20022;-81
2023/04/17 00:15:10;;;;;;;65.45;44.50;;;8.20;99.90;;;;;;6124618;23;20085;-84
2023/04/17 00:17:36;;;;;;;63.85;43.45;;;8.20;99.90;;;;;;6122226;23;20017;-82
2023/04/17 00:20:09;;;;;;;64.60;43.78;;;8.20;99.90;;;;;;6098187;23;20613;-82
2023/04/17 00:22:36;;;;;;;66.47;43.58;;;8.30;99.90;;;;;;6121680;23;20014;-83
2023/04/17 00:25:02;;;;;;;62.53;43.75;;;8.40;99.90;;;;;;6124213;23;20010;-83
2023/04/17 00:27:28;;;;;;;64.68;42.22;;;8.20;99.90;;;;;;6122396;23;20017;-82
2023/04/17 00:29:54;;;;;;;61.40;41.75;;;8.20;99.90;;;;;;6097530;23;20021;-83
2023/04/17 00:32:19;;;;;;;62.65;41.60;;;8.20;99.90;;;;;;6123499;23;20028;-83
2023/04/17 00:34:45;;;;;;;59.63;41.63;;;8.20;99.90;;;;;;6097530;23;20018;-83
2023/04/17 00:37:10;;;;;;;64.18;44.80;;;8.30;99.90;;;;;;6097189;23;20052;-82
2023/04/17 00:39:36;;;;;;;62.60;43.22;;;8.30;99.90;;;;;;6123998;23;20381;-83
2023/04/17 00:42:02;;;;;;;70.15;43.25;;;8.20;99.90;;;;;;6123452;23;20106;-83
2023/04/17 00:44:28;;;;;;;61.28;42.08;;;8.30;99.90;;;;;;6121739;23;20037;-83
2023/04/17 00:46:54;;;;;;;83.88;48.38;;;8.30;99.90;;;;;;6097372;23;20025;-82
2023/04/17 00:49:20;;;;;;;66.97;45.00;;;8.30;99.90;;;;;;6097514;23;20093;-83
2023/04/17 00:51:46;;;;;;;69.43;47.33;;;8.30;99.90;;;;;;6096680;23;20021;-83
2023/04/17 00:54:13;;;;;;;74.88;46.90;;;8.60;99.90;;;;;;6122897;23;20025;-82
2023/04/17 00:56:40;;;;;;;77.55;49.47;;;8.30;99.90;;;;;;6127450;23;20052;-82
2023/04/17 00:59:10;;;;;;;72.05;47.28;;;8.30;99.90;;;;;;6126727;23;20088;-83
2023/04/17 01:01:35;;;;;;;77.70;47.53;;;8.30;99.90;;;;;;6126777;23;20096;-83
2023/04/17 01:04:03;;;;;;;80.75;49.92;;;8.30;99.90;;;;;;6101589;23;20060;-83
2023/04/17 01:06:30;;;;;;;71.38;46.97;;;8.50;99.90;;;;;;6126587;23;20281;-83
2023/04/17 01:08:56;;;;;;;85.68;50.25;;;8.30;99.90;;;;;;6153141;23;20021;-83
2023/04/17 01:11:22;;;;;;;72.15;46.58;;;8.30;99.90;;;;;;6153090;23;20017;-83
2023/04/17 01:13:51;;;;;;;75.25;48.10;;;8.30;99.90;;;;;;6125874;23;20020;-83
2023/04/17 01:16:18;;;;;;;65.60;45.35;;;8.30;99.90;;;;;;6153194;23;20049;-82
2023/04/17 01:18:43;;;;;;;79.38;48.65;;;8.30;99.90;;;;;;6102160;23;20052;-84
2023/04/17 01:21:09;;;;;;;76.47;47.28;;;8.40;99.90;;;;;;6101690;23;20413;-83
2023/04/17 01:23:48;;;;;;;79.10;49.60;;;8.40;99.90;;;;;;6152703;23;20005;-83
2023/04/17 01:26:24;;;;;;;68.80;44.60;;;8.30;99.90;;;;;;6101829;23;20014;-83
2023/04/17 01:28:55;;;;;;;74.95;46.72;;;8.30;99.90;;;;;;6101805;23;20067;-82
2023/04/17 01:31:21;;;;;;;74.10;46.92;;;8.30;99.90;;;;;;6126491;23;20013;-83
2023/04/17 01:33:51;;;;;;;69.28;46.33;;;8.30;99.90;;;;;;6151634;23;20063;-83
2023/04/17 01:36:17;;;;;;;77.30;47.85;;;8.30;99.90;;;;;;6126446;23;20013;-83
2023/04/17 01:38:43;;;;;;;69.55;45.47;;;8.30;99.90;;;;;;6152960;23;20014;-82
2023/04/17 01:41:09;;;;;;;83.25;47.00;;;8.30;99.90;;;;;;6152813;23;20020;-82
2023/04/17 01:43:43;;;;;;;70.20;45.78;;;8.30;99.90;;;;;;6101271;23;20104;-83
2023/04/17 01:46:09;;;;;;;75.20;47.47;;;8.30;99.90;;;;;;6126057;23;20020;-84
2023/04/17 01:48:35;;;;;;;77.40;47.30;;;8.30;99.90;;;;;;6151660;23;20013;-84
2023/04/17 01:51:01;;;;;;;77.47;49.55;;;8.30;99.90;;;;;;6126424;23;20044;-83
2023/04/17 01:53:30;;;;;;;87.32;51.58;;;8.30;99.90;;;;;;6125977;23;20436;-84
2023/04/17 01:55:56;;;;;;;72.22;46.47;;;8.30;99.90;;;;;;6125517;23;20448;-83
2023/04/17 01:58:22;;;;;;;80.25;50.33;;;8.40;99.90;;;;;;6152476;23;20018;-83
2023/04/17 02:00:48;;;;;;;90.10;49.90;;;8.30;99.90;;;;;;6101464;23;20441;-83
2023/04/17 02:03:14;;;;;;;85.25;51.28;;;8.30;99.90;;;;;;6125247;23;20005;-83
2023/04/17 02:05:40;;;;;;;89.93;51.72;;;8.40;99.90;;;;;;6126145;23;20308;-82
2023/04/17 02:08:06;;;;;;;89.22;51.38;;;8.30;99.90;;;;;;6101879;23;20144;-83
2023/04/17 02:10:32;;;;;;;85.53;49.65;;;8.30;99.90;;;;;;6152186;23;20009;-84
2023/04/17 02:12:57;;;;;;;105.72;53.33;;;8.20;99.90;;;;;;6152049;23;20013;-83
2023/04/17 02:15:23;;;;;;;96.40;52.75;;;8.20;99.90;;;;;;6100837;23;20027;-83
2023/04/17 02:17:48;;;;;;;104.20;53.13;;;8.20;99.90;;;;;;6125334;23;20013;-82
2023/04/17 02:20:14;;;;;;;102.70;54.20;;;8.20;99.90;;;;;;6126372;23;20014;-83
2023/04/17 02:22:39;;;;;;;118.47;54.03;;;8.20;99.90;;;;;;6125356;23;20009;-83
2023/04/17 02:25:05;;;;;;;101.22;51.63;;;8.20;99.90;;;;;;6125800;23;20013;-82
2023/04/17 02:27:31;;;;;;;85.30;50.92;;;8.20;99.90;;;;;;6125773;23;20088;-83
2023/04/17 02:29:57;;;;;;;93.25;51.72;;;8.40;99.90;;;;;;6101250;23;20093;-83
2023/04/17 02:32:22;;;;;;;107.28;52.58;;;8.10;99.90;;;;;;6151152;23;20333;-83
2023/04/17 02:34:48;;;;;;;112.57;51.90;;;8.10;99.90;;;;;;6125669;23;20089;-83
2023/04/17 02:37:13;;;;;;;95.93;50.65;;;8.10;99.90;;;;;;6152530;23;20017;-81
2023/04/17 02:39:39;;;;;;;110.88;52.50;;;8.10;99.90;;;;;;6101551;23;20437;-83
2023/04/17 02:42:05;;;;;;;101.88;50.75;;;8.00;99.90;;;;;;6125383;23;20017;-83
2023/04/17 02:44:30;;;;;;;90.10;48.22;;;8.00;99.90;;;;;;6125809;23;20037;-82
2023/04/17 02:46:56;;;;;;;95.38;50.08;;;8.00;99.90;;;;;;6151832;23;20013;-82
2023/04/17 02:49:21;;;;;;;84.22;48.13;;;8.10;99.90;;;;;;6126264;23;20239;-83
2023/04/17 02:51:47;;;;;;;88.70;48.70;;;8.00;99.90;;;;;;6151730;23;20072;-83
2023/04/17 02:54:13;;;;;;;82.72;45.35;;;8.00;99.90;;;;;;6126506;23;20014;-81
2023/04/17 02:56:38;;;;;;;68.55;45.20;;;8.00;99.90;;;;;;6101774;23;20021;-83
2023/04/17 02:59:04;;;;;;;72.07;44.58;;;8.80;99.90;;;;;;6101120;23;20013;-83
2023/04/17 03:01:36;;;;;;;76.28;44.50;;;8.10;99.90;;;;;;6150836;23;20473;-82
2023/04/17 03:04:02;;;;;;;69.10;44.35;;;8.20;99.90;;;;;;6125411;23;20037;-84
2023/04/17 03:06:27;;;;;;;77.88;45.70;;;8.10;99.90;;;;;;6125626;23;20014;-83
2023/04/17 03:08:53;;;;;;;88.07;47.33;;;8.10;99.90;;;;;;6125799;23;20010;-84
2023/04/17 03:11:18;;;;;;;83.10;46.72;;;8.60;99.90;;;;;;6125952;23;20018;-82
2023/04/17 03:13:44;;;;;;;89.68;47.65;;;8.10;99.90;;;;;;6124972;23;20056;-84
2023/04/17 03:16:10;;;;;;;77.93;48.33;;;8.20;99.90;;;;;;6125279;23;20014;-83
2023/04/17 03:18:39;;;;;;;86.22;47.83;;;8.10;99.90;;;;;;6125391;23;20433;-83
2023/04/17 03:21:05;;;;;;;73.68;44.90;;;8.10;99.90;;;;;;6125825;23;20136;-84
2023/04/17 03:23:30;;;;;;;72.57;44.47;;;8.10;99.90;;;;;;6124972;23;20061;-84
2023/04/17 03:25:56;;;;;;;69.75;44.30;;;8.10;99.90;;;;;;6152052;23;20089;-84
2023/04/17 03:28:22;;;;;;;72.03;44.58;;;8.10;99.90;;;;;;6152997;23;20485;-84
2023/04/17 03:30:49;;;;;;;70.32;43.55;;;8.10;99.90;;;;;;6127230;23;20017;-84
2023/04/17 03:33:18;;;;;;;81.85;47.00;;;8.10;99.90;;;;;;6102509;23;20013;-83
2023/04/17 03:35:45;;;;;;;66.70;42.53;;;8.50;99.90;;;;;;6127729;23;20064;-83
2023/04/17 03:38:10;;;;;;;74.95;43.50;;;8.10;99.90;;;;;;6127666;23;20009;-83
2023/04/17 03:40:36;;;;;;;87.25;47.33;;;8.00;99.90;;;;;;6103209;23;20144;-84
2023/04/17 03:43:02;;;;;;;69.57;42.10;;;8.00;99.90;;;;;;6102680;23;20014;-84
2023/04/17 03:45:28;;;;;;;84.85;45.92;;;8.40;99.90;;;;;;6102893;23;20103;-84
2023/04/17 03:47:53;;;;;;;60.33;40.97;;;7.90;99.90;;;;;;6103254;23;20015;-84
2023/04/17 03:50:19;;;;;;;68.95;41.30;;;7.90;99.90;;;;;;6102805;23;20010;-84
2023/04/17 03:52:45;;;;;;;77.95;43.53;;;7.90;99.90;;;;;;6126621;23;20072;-83
2023/04/17 03:55:11;;;;;;;75.70;43.42;;;8.30;99.90;;;;;;6122740;23;20017;-83
2023/04/17 03:57:36;;;;;;;78.53;44.75;;;8.30;99.90;;;;;;6124638;23;20451;-84
2023/04/17 04:00:05;;;;;;;93.38;48.28;;;7.90;99.90;;;;;;6122838;23;20029;-84
2023/04/17 04:02:31;;;;;;;70.47;43.72;;;7.80;99.90;;;;;;6123783;23;20081;-83
2023/04/17 04:04:56;;;;;;;79.57;43.10;;;7.80;99.90;;;;;;6123793;23;20528;-84
2023/04/17 04:07:22;;;;;;;81.18;45.25;;;7.80;99.90;;;;;;6099038;23;20072;-85
2023/04/17 04:09:47;;;;;;;68.03;41.70;;;7.80;99.90;;;;;;6123298;23;20081;-83
2023/04/17 04:12:13;;;;;;;75.18;43.55;;;7.80;99.90;;;;;;6123109;23;20069;-83
2023/04/17 04:14:39;;;;;;;89.78;46.47;;;7.80;99.90;;;;;;6122615;23;20460;-83
2023/04/17 04:17:04;;;;;;;94.53;48.08;;;7.80;99.90;;;;;;6123277;23;20018;-83
2023/04/17 04:19:30;;;;;;;76.88;43.28;;;7.80;99.90;;;;;;6123421;23;20352;-80
2023/04/17 04:21:56;;;;;;;81.30;42.83;;;7.80;99.90;;;;;;6099187;23;20021;-82
2023/04/17 04:24:22;;;;;;;170.32;49.40;;;7.80;99.90;;;;;;6123318;23;20139;-82
2023/04/17 04:26:48;;;;;;;82.60;44.80;;;7.70;99.90;;;;;;6123124;23;20017;-83
2023/04/17 04:29:15;;;;;;;208.15;47.25;;;7.70;99.90;;;;;;6124221;23;20024;-82
2023/04/17 04:31:41;;;;;;;250.73;51.67;;;7.80;99.90;;;;;;6123794;23;20025;-82
2023/04/17 04:34:07;;;;;;;176.77;47.10;;;7.70;99.90;;;;;;6124089;23;20014;-84
2023/04/17 04:36:35;;;;;;;168.88;44.33;;;7.70;99.90;;;;;;6124019;23;20018;-83
2023/04/17 04:39:03;;;;;;;313.75;48.00;;;7.70;99.90;;;;;;6124786;23;20010;-82
2023/04/17 04:41:32;;;;;;;81.65;43.05;;;7.70;99.90;;;;;;6122714;23;20410;-83
2023/04/17 04:43:59;;;;;;;136.90;46.92;;;7.70;99.90;;;;;;6122567;23;20105;-84
2023/04/17 04:46:25;;;;;;;336.73;50.38;;;7.70;99.90;;;;;;6124018;23;20014;-83
2023/04/17 04:48:51;;;;;;;204.20;44.75;;;8.20;99.90;;;;;;6124470;23;20021;-83
2023/04/17 04:51:17;;;;;;;236.55;43.80;;;7.60;99.90;;;;;;6124509;23;20085;-82
2023/04/17 04:53:43;;;;;;;100.95;40.40;;;7.60;99.90;;;;;;6122265;23;20014;-82
2023/04/17 04:56:09;;;;;;;211.90;47.95;;;7.60;99.90;;;;;;6122132;23;20022;-83
2023/04/17 04:58:35;;;;;;;119.85;41.58;;;7.60;99.90;;;;;;6096988;23;20025;-81
2023/04/17 05:01:01;;;;;;;140.68;40.33;;;7.50;99.90;;;;;;6122270;23;20010;-84
2023/04/17 05:03:26;;;;;;;177.32;43.10;;;7.50;99.90;;;;;;6119879;23;20434;-82
2023/04/17 05:05:52;;;;;;;243.90;43.90;;;7.50;99.90;;;;;;6122956;23;20017;-83
2023/04/17 05:08:17;;;;;;;180.57;43.65;;;7.50;99.90;;;;;;6121172;23;20014;-82
2023/04/17 05:10:44;;;;;;;149.73;42.22;;;7.50;99.90;;;;;;6121581;23;20403;-82
2023/04/17 05:13:10;;;;;;;261.60;46.47;;;7.50;99.90;;;;;;6121500;23;20089;-83
2023/04/17 05:15:36;;;;;;;122.65;44.10;;;7.60;99.90;;;;;;6097279;23;20048;-83
2023/04/17 05:18:02;;;;;;;138.45;44.30;;;8.00;99.90;;;;;;6096238;23;20170;-83
2023/04/17 05:20:30;;;;;;;258.25;55.45;;;7.60;99.90;;;;;;6097118;23;20417;-83
2023/04/17 05:22:56;;;;;;;141.48;49.90;;;7.60;99.90;;;;;;6122626;23;20069;-83
2023/04/17 05:25:22;;;;;;;176.77;52.30;;;7.60;99.90;;;;;;6122184;23;20010;-83
2023/04/17 05:27:47;;;;;;;193.90;54.75;;;7.60;99.90;;;;;;6123320;23;20018;-83
2023/04/17 05:30:14;;;;;;;229.35;55.85;;;8.30;99.90;;;;;;6122254;23;20037;-83
2023/04/17 05:32:39;;;;;;;79.13;45.55;;;7.70;99.90;;;;;;6121759;23;20314;-83
2023/04/17 05:35:06;;;;;;;94.15;48.72;;;7.70;99.90;;;;;;6122273;23;20105;-83
2023/04/17 05:37:31;;;;;;;152.02;47.58;;;7.80;99.90;;;;;;6097255;23;20338;-83
2023/04/17 05:39:59;;;;;;;105.50;46.80;;;7.80;99.90;;;;;;6121518;23;20045;-83
2023/04/17 05:42:25;;;;;;;204.95;47.95;;;7.80;99.90;;;;;;6121205;23;20089;-83
2023/04/17 05:44:50;;;;;;;88.85;46.17;;;7.80;99.90;;;;;;6121110;23;20112;-83
2023/04/17 05:47:16;;;;;;;156.65;49.13;;;7.80;99.90;;;;;;6121986;23;20460;-82
2023/04/17 05:49:42;;;;;;;90.28;47.42;;;7.80;99.90;;;;;;6097139;23;20420;-81
2023/04/17 05:52:08;;;;;;;142.30;49.60;;;7.80;99.90;;;;;;6093404;23;20067;-82
2023/04/17 05:54:34;;;;;;;94.85;46.60;;;7.90;99.90;;;;;;6096220;23;20025;-83
2023/04/17 05:57:01;;;;;;;103.75;49.70;;;8.00;99.90;;;;;;6123428;23;20045;-83
2023/04/17 05:59:26;;;;;;;87.53;47.53;;;8.00;99.90;;;;;;6123765;23;20025;-83
2023/04/17 06:01:52;;;;;;;84.68;47.25;;;8.00;99.90;;;;;;6122092;23;20014;-84
2023/04/17 06:04:17;;;;;;;117.15;49.10;;;8.00;99.90;;;;;;6121660;23;20315;-82
2023/04/17 06:06:43;;;;;;;87.05;46.05;;;8.00;99.90;;;;;;6098004;23;20006;-83
2023/04/17 06:09:09;;;;;;;85.10;47.25;;;8.00;99.90;;;;;;6121872;23;20025;-83
2023/04/17 06:11:36;;;;;;;71.65;46.40;;;8.10;99.90;;;;;;6123029;23;20088;-84
2023/04/17 06:14:01;;;;;;;86.03;50.63;;;8.20;99.90;;;;;;6123175;23;20006;-83
2023/04/17 06:16:27;;;;;;;97.72;51.90;;;8.20;99.90;;;;;;6122930;23;20069;-83
2023/04/17 06:18:53;;;;;;;87.53;49.55;;;8.50;99.90;;;;;;6123334;23;20014;-84
2023/04/17 06:21:18;;;;;;;73.22;47.75;;;8.20;99.90;;;;;;6100073;23;20036;-82
2023/04/17 06:23:44;;;;;;;88.57;51.38;;;8.30;99.90;;;;;;6122754;23;20018;-82
2023/04/17 06:26:11;;;;;;;85.50;49.83;;;8.40;99.90;;;;;;6123865;23;20493;-82
2023/04/17 06:28:36;;;;;;;73.18;47.25;;;8.40;99.90;;;;;;6122746;23;20037;-82
2023/04/17 06:31:02;;;;;;;69.90;46.05;;;8.40;99.90;;;;;;6123477;23;20022;-82
2023/04/17 06:33:27;;;;;;;70.55;44.78;;;8.40;99.90;;;;;;6122690;23;20010;-81
2023/04/17 06:35:53;;;;;;;60.38;43.30;;;8.40;99.90;;;;;;6122325;23;20061;-83
2023/04/17 06:38:19;;;;;;;56.97;42.17;;;8.50;99.90;;;;;;6121179;23;20453;-82
2023/04/17 06:40:45;;;;;;;65.18;44.88;;;8.60;99.90;;;;;;6122187;23;20148;-82
2023/04/17 06:43:11;;;;;;;61.15;43.80;;;8.70;99.90;;;;;;6124920;23;20329;-82
2023/04/17 06:45:36;;;;;;;62.85;44.40;;;8.80;99.90;;;;;;6123886;23;20022;-83
2023/04/17 06:48:02;;;;;;;63.35;45.28;;;8.90;99.90;;;;;;6123457;23;20322;-83
2023/04/17 06:50:28;;;;;;;66.75;45.97;;;8.80;99.90;;;;;;6122843;23;20088;-83
2023/04/17 06:52:53;;;;;;;58.00;43.75;;;8.90;99.90;;;;;;6124845;23;20028;-81
2023/04/17 06:55:19;;;;;;;60.13;43.35;;;9.00;99.90;;;;;;6141341;23;20357;-80
2023/04/17 06:57:45;;;;;;;64.90;45.72;;;9.00;99.90;;;;;;6129372;23;20013;-82
2023/04/17 07:00:11;;;;;;;57.17;43.65;;;9.10;99.90;;;;;;6128417;23;20717;-82
2023/04/17 07:02:37;;;;;;;56.60;42.42;;;9.10;99.90;;;;;;6128054;23;20048;-83
2023/04/17 07:05:05;;;;;;;58.58;43.50;;;9.20;99.90;;;;;;6131220;23;20013;-82
2023/04/17 07:07:33;;;;;;;53.15;41.50;;;9.20;99.90;;;;;;6110234;23;20009;-83
2023/04/17 07:10:03;;;;;;;53.75;41.28;;;9.30;99.90;;;;;;6112167;23;20025;-83
2023/04/17 07:12:28;;;;;;;54.92;41.75;;;9.40;99.90;;;;;;6129573;23;20016;-83
2023/04/17 07:14:54;;;;;;;60.05;41.35;;;9.50;99.90;;;;;;6155844;23;20005;-84
2023/04/17 07:17:19;;;;;;;52.90;40.17;;;9.60;99.90;;;;;;6155749;23;20018;-83
2023/04/17 07:19:45;;;;;;;52.63;41.10;;;9.70;99.90;;;;;;6156334;23;20080;-80
2023/04/17 07:22:11;;;;;;;54.28;40.90;;;9.80;99.90;;;;;;6129861;23;20072;-82
2023/04/17 07:24:36;;;;;;;50.97;38.97;;;9.80;99.90;;;;;;6129845;23;20105;-83
2023/04/17 07:27:02;;;;;;;45.55;37.45;;;9.90;99.90;;;;;;6130340;23;20379;-84
2023/04/17 07:29:28;;;;;;;44.72;37.25;;;10.00;99.90;;;;;;6127856;23;20020;-83
2023/04/17 07:31:54;;;;;;;45.10;38.35;;;10.20;99.90;;;;;;6154374;23;20080;-82
2023/04/17 07:34:20;;;;;;;42.42;35.40;;;10.20;99.90;;;;;;6127762;23;20017;-81
2023/04/17 07:36:46;;;;;;;43.42;37.03;;;10.30;99.90;;;;;;6127876;23;20014;-81
2023/04/17 07:39:12;;;;;;;42.55;36.58;;;10.50;99.90;;;;;;6103199;23;20013;-82
2023/04/17 07:41:37;;;;;;;42.35;35.17;;;10.50;99.90;;;;;;6154339;23;20419;-82
2023/04/17 07:44:04;;;;;;;40.58;34.67;;;10.70;99.90;;;;;;6128713;23;20017;-83
2023/04/17 07:46:30;;;;;;;38.88;33.40;;;10.80;99.90;;;;;;6128372;23;20019;-83
2023/04/17 07:48:57;;;;;;;38.90;34.10;;;10.70;99.90;;;;;;6103223;23;20065;-81
2023/04/17 07:51:23;;;;;;;41.97;34.03;;;10.70;99.90;;;;;;6127411;23;20079;-82
2023/04/17 07:53:49;;;;;;;40.60;33.80;;;10.70;99.90;;;;;;6154277;23;20017;-82
2023/04/17 07:56:15;;;;;;;40.80;33.97;;;10.50;99.90;;;;;;6122887;23;20045;-82
2023/04/17 07:58:41;;;;;;;36.10;30.73;;;10.70;99.90;;;;;;6123229;23;20367;-83
2023/04/17 08:01:07;;;;;;;35.55;30.95;;;10.80;99.90;;;;;;6125077;23;20010;-82
2023/04/17 08:03:32;;;;;;;35.58;30.75;;;10.80;99.90;;;;;;6099234;23;20025;-82
2023/04/17 08:05:58;;;;;;;34.55;30.42;;;10.90;99.90;;;;;;6122904;23;20084;-82
2023/04/17 08:08:24;;;;;;;37.22;33.33;;;10.90;99.90;;;;;;6125008;23;20018;-82
2023/04/17 08:10:50;;;;;;;35.05;31.27;;;10.70;99.90;;;;;;6124988;23;20014;-81
2023/04/17 08:13:15;;;;;;;35.58;31.67;;;10.80;99.90;;;;;;6101194;23;20029;-81
2023/04/17 08:15:42;;;;;;;34.38;30.52;;;10.80;99.90;;;;;;6123838;23;20119;-82
2023/04/17 08:18:09;;;;;;;37.75;30.65;;;10.90;99.90;;;;;;6126760;23;20010;-83
2023/04/17 08:20:35;;;;;;;34.65;29.92;;;11.20;99.90;;;;;;6122350;23;20014;-83
2023/04/17 08:23:00;;;;;;;32.88;29.35;;;11.20;99.90;;;;;;6124422;23;20017;-82
2023/04/17 08:25:26;;;;;;;33.58;30.15;;;11.30;99.90;;;;;;6123025;23;20010;-82
2023/04/17 08:27:52;;;;;;;29.98;26.85;;;11.60;99.90;;;;;;6124863;23;20022;-83
2023/04/17 08:30:19;;;;;;;31.13;27.92;;;11.80;99.90;;;;;;6126072;23;20352;-82
2023/04/17 08:32:46;;;;;;;31.00;27.80;;;12.10;99.90;;;;;;6122917;23;20037;-84
2023/04/17 08:35:13;;;;;;;32.90;28.67;;;12.40;99.90;;;;;;6122486;23;20337;-82
2023/04/17 08:37:41;;;;;;;30.70;27.60;;;12.50;99.90;;;;;;6121835;23;20028;-82
2023/04/17 08:40:08;;;;;;;29.95;26.02;;;12.60;99.90;;;;;;6122000;23;20021;-82
2023/04/17 08:42:41;;;;;;;28.08;24.73;;;12.70;99.90;;;;;;6122277;23;20049;-82
2023/04/17 08:45:09;;;;;;;28.48;25.42;;;12.80;99.90;;;;;;6097533;23;20014;-83
2023/04/17 08:47:39;;;;;;;30.38;24.63;;;12.60;99.90;;;;;;6097659;23;20017;-82
2023/04/17 08:50:07;;;;;;;25.38;22.77;;;12.50;99.90;;;;;;6123659;23;20014;-82
2023/04/17 08:52:37;;;;;;;24.92;22.27;;;12.70;99.90;;;;;;6123122;23;20045;-81
2023/04/17 08:55:02;;;;;;;24.77;21.45;;;12.80;99.90;;;;;;6097518;23;20033;-82
2023/04/17 08:57:28;;;;;;;23.27;20.88;;;13.00;99.90;;;;;;6122398;23;20006;-85
2023/04/17 08:59:53;;;;;;;24.80;20.38;;;13.30;99.90;;;;;;6098286;23;20021;-86
2023/04/17 09:02:19;;;;;;;22.65;19.88;;;13.40;99.90;;;;;;6122298;23;20161;-82
2023/04/17 09:04:46;;;;;;;21.38;18.65;;;13.60;99.90;;;;;;6122209;23;20014;-81
2023/04/17 09:07:14;;;;;;;24.23;19.55;;;13.70;99.90;;;;;;6122597;23;20437;-81
2023/04/17 09:09:46;;;;;;;23.25;18.92;;;13.70;99.90;;;;;;6122215;23;20032;-79
2023/04/17 09:12:12;;;;;;;21.38;19.17;;;13.40;99.90;;;;;;6122004;23;20014;-81
2023/04/17 09:14:38;;;;;;;20.80;18.58;;;13.80;99.90;;;;;;6122090;23;20345;-81
2023/04/17 09:17:04;;;;;;;20.27;17.92;;;14.00;99.90;;;;;;6124088;23;20391;-82
2023/04/17 09:19:30;;;;;;;21.73;17.75;;;14.20;99.90;;;;;;6123256;23;20085;-81
2023/04/17 09:21:56;;;;;;;21.42;17.95;;;14.30;99.90;;;;;;6123740;23;20044;-81
2023/04/17 09:24:36;;;;;;;21.20;17.60;;;14.20;99.90;;;;;;6123446;23;20021;-82
2023/04/17 09:27:21;;;;;;;22.35;17.15;;;14.30;99.90;;;;;;6124334;23;20052;-81
2023/04/17 09:30:00;;;;;;;20.20;17.42;;;14.40;99.90;;;;;;6123893;23;20069;-81
2023/04/17 09:32:26;;;;;;;19.33;17.30;;;14.40;99.90;;;;;;6123380;23;20072;-82
2023/04/17 09:34:53;;;;;;;20.95;18.80;;;14.40;99.90;;;;;;6098633;23;20068;-82
2023/04/17 09:37:22;;;;;;;19.92;17.85;;;14.20;99.90;;;;;;6123902;23;20026;-82
2023/04/17 09:39:59;;;;;;;21.95;18.50;;;14.20;99.90;;;;;;6124260;23;20037;-82
2023/04/17 09:42:28;;;;;;;21.67;19.05;;;14.30;99.90;;;;;;6123681;23;20010;-82
2023/04/17 09:44:53;;;;;;;22.63;18.50;;;14.20;99.90;;;;;;6123158;23;20014;-82
2023/04/17 09:47:21;;;;;;;22.02;18.30;;;14.10;99.90;;;;;;6122609;23;20061;-83
2023/04/17 09:49:51;;;;;;;22.23;17.70;;;14.20;99.90;;;;;;6122400;23;20010;-82
2023/04/17 09:52:25;;;;;;;21.50;17.58;;;14.20;99.90;;;;;;6121434;23;20493;-81
2023/04/17 09:54:52;;;;;;;24.70;17.77;;;14.20;99.90;;;;;;6121507;23;20501;-83
2023/04/17 09:57:18;;;;;;;23.10;16.92;;;14.40;99.90;;;;;;6097321;23;20380;-83
2023/04/17 09:59:47;;;;;;;19.33;17.30;;;14.30;99.90;;;;;;6096516;23;20531;-83
2023/04/17 10:02:15;;;;;;;21.40;15.30;;;14.10;99.90;;;;;;6120420;23;20025;-83
2023/04/17 10:04:44;;;;;;;20.40;16.50;;;14.10;99.90;;;;;;6121458;23;20006;-81
2023/04/17 10:07:11;;;;;;;18.95;16.10;;;14.20;99.90;;;;;;6121312;23;20052;-82
2023/04/17 10:09:44;;;;;;;17.67;15.55;;;14.30;99.90;;;;;;6123490;23;20018;-83
2023/04/17 10:12:15;;;;;;;18.73;16.52;;;14.50;99.90;;;;;;6121539;23;20014;-82
2023/04/17 10:14:45;;;;;;;24.52;16.98;;;14.50;99.90;;;;;;6121470;23;20073;-82
2023/04/17 10:17:30;;;;;;;19.17;16.58;;;14.60;99.90;;;;;;6120492;23;20018;-83
2023/04/17 10:20:14;;;;;;;18.00;15.73;;;14.50;99.90;;;;;;6119554;23;20006;-82
2023/04/17 10:22:40;;;;;;;20.60;17.23;;;14.40;99.90;;;;;;6121470;23;20020;-82
2023/04/17 10:25:12;;;;;;;20.45;17.67;;;14.30;99.90;;;;;;6121681;23;20382;-81
2023/04/17 10:27:39;;;;;;;18.58;16.70;;;14.50;99.90;;;;;;6121869;23;20042;-82
2023/04/17 10:30:09;;;;;;;18.45;15.77;;;14.80;99.90;;;;;;6120799;23;20021;-82
2023/04/17 10:32:35;;;;;;;19.17;15.70;;;15.10;99.90;;;;;;6097665;23;20432;-82
2023/04/17 10:35:22;;;;;;;22.17;16.65;;;15.10;99.90;;;;;;6122296;23;20092;-82
2023/04/17 10:37:48;;;;;;;17.20;15.40;;;15.20;99.90;;;;;;6121005;23;20096;-82
2023/04/17 10:40:22;;;;;;;18.42;15.15;;;15.30;99.90;;;;;;6121446;23;20068;-81
2023/04/17 10:43:06;;;;;;;;;;;15.40;99.90;;;;;;6096495;23;20493;-81
2023/04/17 10:45:51;;;;;;;20.20;16.77;;;15.60;99.90;;;;;;6122599;23;20047;-81
2023/04/17 10:48:40;;;;;;;18.23;15.95;;;15.20;99.90;;;;;;6124239;23;20014;-81
2023/04/17 10:51:25;;;;;;;18.17;16.27;;;15.20;99.90;;;;;;6097699;23;20018;-82
2023/04/17 10:53:56;;;;;;;23.20;17.10;;;15.00;99.90;;;;;;6096695;23;20025;-82
2023/04/17 10:56:35;;;;;;;20.42;16.73;;;15.00;99.90;;;;;;6096371;23;20021;-81
2023/04/17 10:59:04;;;;;;;18.13;15.45;;;14.50;99.90;;;;;;6122757;23;20018;-82
2023/04/17 11:01:36;;;;;;;20.60;16.58;;;14.60;99.90;;;;;;6122621;23;20020;-80
2023/04/17 11:04:06;;;;;;;17.83;15.93;;;14.50;99.90;;;;;;6121005;23;20060;-80
2023/04/17 11:06:38;;;;;;;20.08;16.52;;;14.50;99.90;;;;;;6097158;23;20139;-81
2023/04/17 11:09:08;;;;;;;19.73;15.18;;;14.60;99.90;;;;;;6121522;23;20026;-82
2023/04/17 11:11:38;;;;;;;18.83;15.60;;;14.60;99.90;;;;;;6121415;23;20014;-80
2023/04/17 11:14:08;;;;;;;20.23;16.75;;;14.60;99.90;;;;;;6120503;23;20120;-80
2023/04/17 11:16:33;;;;;;;19.58;16.60;;;14.70;99.90;;;;;;6121254;23;20045;-81
2023/04/17 11:18:59;;;;;;;21.02;17.35;;;14.70;99.90;;;;;;6121444;23;20014;-82
2023/04/17 11:21:25;;;;;;;23.33;18.73;;;14.50;99.90;;;;;;6122890;23;20056;-81
2023/04/17 11:23:51;;;;;;;20.15;15.60;;;14.50;99.90;;;;;;6121240;23;20014;-82
2023/04/17 11:26:18;;;;;;;19.58;17.58;;;14.50;99.90;;;;;;6122855;23;20069;-83
2023/04/17 11:28:44;;;;;;;24.02;17.17;;;14.60;99.90;;;;;;6120374;23;20017;-81
2023/04/17 11:31:12;;;;;;;20.02;16.88;;;14.60;99.90;;;;;;6123001;23;20010;-82
2023/04/17 11:33:38;;;;;;;21.27;16.90;;;14.50;99.90;;;;;;6120813;23;20018;-82
2023/04/17 11:36:05;;;;;;;19.70;17.30;;;14.50;99.90;;;;;;6121041;23;20040;-81
2023/04/17 11:38:31;;;;;;;22.20;17.05;;;14.60;99.90;;;;;;6121222;23;20017;-81
2023/04/17 11:40:59;;;;;;;18.00;15.90;;;14.70;99.90;;;;;;6096462;23;20017;-82
2023/04/17 11:43:25;;;;;;;20.85;15.95;;;15.00;99.90;;;;;;6121847;23;20037;-82
2023/04/17 11:45:53;;;;;;;19.83;15.07;;;15.30;99.90;;;;;;6122894;23;20042;-82
2023/04/17 11:48:26;;;;;;;23.20;16.13;;;15.50;99.90;;;;;;6123463;23;20014;-82
2023/04/17 11:50:56;;;;;;;;;;;15.60;99.90;;;;;;6123256;23;20098;-82
2023/04/17 11:53:22;;;;;;;20.25;16.63;;;15.70;99.90;;;;;;6122357;23;19995;-82
2023/04/17 11:56:08;;;;;;;20.60;16.88;;;15.80;99.90;;;;;;6098598;23;20369;-81
2023/04/17 11:58:53;;;;;;;21.45;17.05;;;15.70;99.90;;;;;;6124078;23;20022;-82
2023/04/17 12:01:23;;;;;;;19.38;16.95;;;15.80;99.90;;;;;;6098378;23;20021;-82
2023/04/17 12:03:49;;;;;;;19.58;16.63;;;15.70;99.90;;;;;;6124684;23;20016;-80
2023/04/17 12:06:15;;;;;;;19.92;16.00;;;15.80;99.90;;;;;;6124683;23;20014;-81
2023/04/17 12:08:44;;;;;;;20.45;17.13;;;16.10;99.90;;;;;;6124528;23;20018;-81
2023/04/17 12:11:22;;;;;;;20.73;16.70;;;16.00;99.90;;;;;;6121921;23;20017;-81
2023/04/17 12:13:48;;;;;;;21.88;16.52;;;16.00;99.90;;;;;;6096798;23;20093;-81
2023/04/17 12:16:13;;;;;;;24.48;17.10;;;15.80;99.90;;;;;;6121873;23;20046;-81
2023/04/17 12:18:39;;;;;;;21.40;17.80;;;16.00;99.90;;;;;;6122565;23;20021;-83
2023/04/17 12:21:05;;;;;;;20.73;16.30;;;16.00;99.90;;;;;;6123812;23;20014;-80
2023/04/17 12:23:30;;;;;;;22.75;17.00;;;16.10;99.90;;;;;;6097562;23;20032;-81
2023/04/17 12:25:56;;;;;;;22.00;17.33;;;16.20;99.90;;;;;;6121562;23;20017;-81
2023/04/17 12:28:22;;;;;;;21.58;16.88;;;16.20;99.90;;;;;;6121095;23;20021;-80
2023/04/17 12:30:47;;;;;;;22.05;17.02;;;16.10;99.90;;;;;;6121405;23;20414;-81
2023/04/17 12:33:13;;;;;;;21.45;16.00;;;16.20;99.90;;;;;;6121157;23;20089;-81